Time;durP1;ratioP1;P1;durP2;ratioP2;P2;SDS_P1;SDS_P2;PMS_P1;PMS_P2;Temp;Humidity;BMP_temperature;BMP_pressure;BME280_temperature;BME280_humidity;BME280_pressure;Samples;Min_cycle;Max_cycle;Signal;HPM_P1;HPM_P2
2022/04/30 00:01:19;;;;;;;;;;;9.50;99.90;;;;;;5114117;28;20238;-74
2022/04/30 00:03:44;;;;;;;;;;;9.50;99.90;;;;;;5113272;28;19908;-75
2022/04/30 00:06:10;;;;;;;;;;;9.40;99.90;;;;;;5114167;28;20233;-74
2022/04/30 00:08:35;;;;;;;;;;;9.40;99.90;;;;;;5113737;28;19911;-74
2022/04/30 00:11:01;;;;;;;;;;;9.50;99.90;;;;;;5112926;28;20364;-74
2022/04/30 00:13:27;;;;;;;;;;;9.50;99.90;;;;;;5113350;28;19911;-75
2022/04/30 00:15:52;;;;;;;;;;;9.40;99.90;;;;;;5109186;28;20687;-75
2022/04/30 00:18:18;;;;;;;;;;;9.40;99.90;;;;;;5122995;27;19907;-74
2022/04/30 00:20:47;;;;;;;;;;;9.30;99.90;;;;;;5133877;27;19965;-74
2022/04/30 00:23:21;;;;;;;;;;;9.30;99.90;;;;;;5133910;27;19907;-74
2022/04/30 00:25:51;;;;;;;;;;;9.30;99.90;;;;;;5133616;27;19959;-74
2022/04/30 00:28:18;;;;;;;;;;;9.20;99.90;;;;;;5134095;27;19916;-75
2022/04/30 00:30:44;;;;;;;;;;;9.20;99.90;;;;;;5133347;27;19918;-75
2022/04/30 00:33:10;;;;;;;;;;;9.20;99.90;;;;;;5133726;27;19998;-74
2022/04/30 00:35:38;;;;;;;;;;;9.20;99.90;;;;;;5133866;27;20347;-74
2022/04/30 00:38:04;;;;;;;;;;;9.20;99.90;;;;;;5133270;28;20069;-74
2022/04/30 00:40:30;;;;;;;;;;;9.10;99.90;;;;;;5134023;28;20339;-74
2022/04/30 00:42:55;;;;;;;;;;;9.10;99.90;;;;;;5133432;28;19914;-74
2022/04/30 00:45:21;;;;;;;;;;;9.10;99.90;;;;;;5134185;28;19907;-74
2022/04/30 00:47:47;;;;;;;;;;;9.10;99.90;;;;;;5114729;28;19962;-74
2022/04/30 00:50:14;;;;;;;;;;;9.00;99.90;;;;;;5133607;28;19919;-74
2022/04/30 00:52:41;;;;;;;;;;;9.10;99.90;;;;;;5133601;28;19965;-74
2022/04/30 00:55:07;;;;;;;;;;;9.10;99.90;;;;;;5132767;28;19911;-74
2022/04/30 00:57:33;;;;;;;;;;;9.00;99.90;;;;;;5150926;27;19919;-74
2022/04/30 01:00:00;;;;;;;;;;;9.10;99.90;;;;;;5153911;27;20244;-74
2022/04/30 01:02:28;;;;;;;;;;;9.10;99.90;;;;;;5154465;27;19907;-74
2022/04/30 01:04:55;;;;;;;;;;;9.00;99.90;;;;;;5153876;27;20039;-74
2022/04/30 01:07:21;;;;;;;;;;;9.10;99.90;;;;;;5135763;27;19949;-74
2022/04/30 01:09:47;;;;;;;;;;;9.10;99.90;;;;;;5153650;27;19966;-74
2022/04/30 01:12:14;;;;;;;;;;;9.10;99.90;;;;;;5153800;27;19918;-74
2022/04/30 01:14:40;;;;;;;;;;;9.10;99.90;;;;;;5154151;27;19930;-74
2022/04/30 01:17:08;;;;;;;;;;;9.20;99.90;;;;;;5153506;27;19942;-74
2022/04/30 01:19:36;;;;;;;;;;;9.20;99.90;;;;;;5154306;27;19943;-74
2022/04/30 01:22:08;;;;;;;;;;;9.20;99.90;;;;;;5134962;27;20365;-74
2022/04/30 01:24:34;;;;;;;;;;;9.20;99.90;;;;;;5154386;27;19907;-74
2022/04/30 01:27:00;;;;;;;;;;;9.20;99.90;;;;;;5153316;27;20378;-74
2022/04/30 01:29:28;;;;;;;;;;;9.20;99.90;;;;;;5154166;27;19911;-74
2022/04/30 01:37:23;;;;;;;;;;;9.20;99.90;;;;;;5154263;27;19916;-74
2022/04/30 01:39:54;;;;;;;;;;;9.10;99.90;;;;;;5153482;27;20283;-75
2022/04/30 01:42:19;;;;;;;;;;;9.10;99.90;;;;;;5154401;27;20002;-75
2022/04/30 01:44:47;;;;;;;;;;;9.10;99.90;;;;;;5157416;27;20352;-75
2022/04/30 01:47:17;;;;;;;;;;;9.10;99.90;;;;;;5157727;27;19914;-75
2022/04/30 01:49:43;;;;;;;;;;;9.00;99.90;;;;;;5157048;27;19976;-75
2022/04/30 01:52:09;;;;;;;;;;;9.00;99.90;;;;;;5156988;27;19907;-75
2022/04/30 01:54:35;;;;;;;;;;;9.00;99.90;;;;;;5157718;27;19948;-75
2022/04/30 01:57:01;;;;;;;;;;;9.00;99.90;;;;;;5157085;27;19964;-74
2022/04/30 01:59:26;;;;;;;;;;;9.00;99.90;;;;;;5157301;27;20419;-75
2022/04/30 02:01:53;;;;;;;;;;;9.10;99.90;;;;;;5156768;27;20364;-74
2022/04/30 02:04:21;;;;;;;;;;;9.10;99.90;;;;;;5156769;27;20205;-74
2022/04/30 02:06:46;;;;;;;;;;;9.10;99.90;;;;;;5138858;27;19907;-75
2022/04/30 02:09:14;;;;;;;;;;;9.10;99.90;;;;;;5156673;27;19911;-75
2022/04/30 02:11:40;;;;;;;;;;;9.10;99.90;;;;;;5157420;27;20014;-75
2022/04/30 02:14:07;;;;;;;;;;;9.10;99.90;;;;;;5156528;27;19950;-74
2022/04/30 02:16:34;;;;;;;;;;;9.10;99.90;;;;;;5156910;27;19954;-75
2022/04/30 02:19:01;;;;;;;;;;;9.10;99.90;;;;;;5156414;27;20264;-75
2022/04/30 02:21:29;;;;;;;;;;;9.10;99.90;;;;;;5157244;27;19911;-75
2022/04/30 02:23:58;;;;;;;;;;;9.10;99.90;;;;;;5156449;27;19930;-75
2022/04/30 02:26:26;;;;;;;;;;;9.10;99.90;;;;;;5156657;27;19913;-75
2022/04/30 02:28:57;;;;;;;;;;;9.10;99.90;;;;;;5156494;27;19963;-75
2022/04/30 02:31:23;;;;;;;;;;;9.10;99.90;;;;;;5157149;27;19963;-75
2022/04/30 02:33:49;;;;;;;;;;;9.00;99.90;;;;;;5156981;27;19911;-75
2022/04/30 02:36:15;;;;;;;;;;;9.10;99.90;;;;;;5156150;27;19915;-75
2022/04/30 02:38:41;;;;;;;;;;;9.10;99.90;;;;;;5156700;27;20275;-74
2022/04/30 02:41:07;;;;;;;;;;;9.10;99.90;;;;;;5155787;27;20015;-75
2022/04/30 02:43:32;;;;;;;;;;;9.00;99.90;;;;;;5156331;27;19939;-75
2022/04/30 02:45:58;;;;;;;;;;;9.00;99.90;;;;;;5155851;27;19907;-74
2022/04/30 02:48:24;;;;;;;;;;;9.00;99.90;;;;;;5156311;27;20313;-74
2022/04/30 02:50:51;;;;;;;;;;;9.10;99.90;;;;;;5155843;27;20380;-75
2022/04/30 02:53:18;;;;;;;;;;;9.10;99.90;;;;;;5155752;27;19915;-74
2022/04/30 02:55:44;;;;;;;;;;;9.00;99.90;;;;;;5154479;27;19907;-74
2022/04/30 03:00:54;;;;;;;;;;;9.00;99.90;;;;;;5156198;27;19955;-74
2022/04/30 03:03:20;;;;;;;;;;;9.00;99.90;;;;;;5156145;27;19907;-74
2022/04/30 03:05:47;;;;;;;;;;;9.00;99.90;;;;;;5156033;27;19907;-74
2022/04/30 03:08:14;;;;;;;;;;;9.00;99.90;;;;;;5155539;27;19915;-74
2022/04/30 03:10:40;;;;;;;;;;;9.00;99.90;;;;;;5156207;27;19911;-74
2022/04/30 03:13:06;;;;;;;;;;;9.10;99.90;;;;;;5155406;27;19907;-74
2022/04/30 03:15:33;;;;;;;;;;;9.00;99.90;;;;;;5156289;27;19907;-74
2022/04/30 03:23:27;;;;;;;;;;;9.00;99.90;;;;;;5155617;27;19917;-74
2022/04/30 03:25:53;;;;;;;;;;;9.00;99.90;;;;;;5155886;27;19946;-74
2022/04/30 03:28:18;;;;;;;;;;;9.00;99.90;;;;;;5155481;27;20372;-74
2022/04/30 03:30:46;;;;;;;;;;;9.00;99.90;;;;;;5137218;27;19918;-74
2022/04/30 03:33:11;;;;;;;;;;;8.90;99.90;;;;;;5155499;27;20005;-74
2022/04/30 03:35:40;;;;;;;;;;;9.00;99.90;;;;;;5155493;27;20398;-74
2022/04/30 03:38:06;;;;;;;;;;;8.90;99.90;;;;;;5154776;27;20423;-74
2022/04/30 03:40:34;;;;;;;;;;;8.90;99.90;;;;;;5155745;27;20371;-74
2022/04/30 03:43:00;;;;;;;;;;;8.90;99.90;;;;;;5154886;27;19914;-74
2022/04/30 03:45:26;;;;;;;;;;;8.90;99.90;;;;;;5155287;27;20245;-74
2022/04/30 03:47:51;;;;;;;;;;;8.90;99.90;;;;;;5155266;27;19908;-74
2022/04/30 03:50:17;;;;;;;;;;;8.90;99.90;;;;;;5154495;27;19975;-74
2022/04/30 03:52:42;;;;;;;;;;;8.90;99.90;;;;;;5155055;27;19911;-74
2022/04/30 03:55:09;;;;;;;;;;;8.90;99.90;;;;;;5154596;27;19914;-74
2022/04/30 03:57:34;;;;;;;;;;;8.90;99.90;;;;;;5155334;27;20305;-74
2022/04/30 04:00:01;;;;;;;;;;;9.00;99.90;;;;;;5154464;27;19959;-74
2022/04/30 04:02:27;;;;;;;;;;;9.00;99.90;;;;;;5155297;27;19911;-74
2022/04/30 04:04:53;;;;;;;;;;;8.90;99.90;;;;;;5136692;27;19907;-74
2022/04/30 04:07:19;;;;;;;;;;;8.90;99.90;;;;;;5154322;27;19902;-74
2022/04/30 04:09:46;;;;;;;;;;;8.90;99.90;;;;;;5154997;27;19915;-74
2022/04/30 04:12:11;;;;;;;;;;;8.90;99.90;;;;;;5154279;27;20283;-74
2022/04/30 04:17:39;;;;;;;;;;;8.80;99.90;;;;;;5154237;27;20447;-74
2022/04/30 04:20:13;;;;;;;;;;;8.90;99.90;;;;;;5147609;27;19911;-74
2022/04/30 04:22:39;;;;;;;;;;;8.90;99.90;;;;;;5133819;27;20288;-74
2022/04/30 04:27:53;;;;;;;;;;;8.80;99.90;;;;;;5134332;27;20409;-74
2022/04/30 04:30:20;;;;;;;;;;;8.80;99.90;;;;;;5132976;27;19922;-74
2022/04/30 04:32:45;;;;;;;;;;;8.80;99.90;;;;;;5133988;27;20003;-74
2022/04/30 04:35:14;;;;;;;;;;;8.90;99.90;;;;;;5133434;27;20324;-74
2022/04/30 04:37:39;;;;;;;;;;;8.80;99.90;;;;;;5133377;27;19952;-74
2022/04/30 04:40:05;;;;;;;;;;;8.80;99.90;;;;;;5133162;27;20354;-74
2022/04/30 04:42:31;;;;;;;;;;;8.90;99.90;;;;;;5133598;27;19952;-75
2022/04/30 04:44:56;;;;;;;;;;;8.90;99.90;;;;;;5133565;28;20372;-75
2022/04/30 04:47:22;;;;;;;;;;;8.90;99.90;;;;;;5132983;28;20224;-74
2022/04/30 04:49:48;;;;;;;;;;;8.80;99.90;;;;;;5133381;28;19912;-75
2022/04/30 04:52:13;;;;;;;;;;;8.80;99.90;;;;;;5132677;28;19911;-74
2022/04/30 04:54:39;;;;;;;;;;;8.80;99.90;;;;;;5133701;28;20001;-74
2022/04/30 04:57:04;;;;;;;;;;;8.90;99.90;;;;;;5133119;28;19926;-75
2022/04/30 04:59:30;;;;;;;;;;;8.80;99.90;;;;;;5133806;28;19950;-74
2022/04/30 05:01:56;;;;;;;;;;;8.90;99.90;;;;;;5133847;28;20351;-74
2022/04/30 05:04:24;;;;;;;;;;;8.90;99.90;;;;;;5133305;28;20549;-74
2022/04/30 05:06:50;;;;;;;;;;;8.80;99.90;;;;;;5133504;28;19950;-74
2022/04/30 05:09:15;;;;;;;;;;;8.80;99.90;;;;;;5133095;28;19969;-74
2022/04/30 05:11:41;;;;;;;;;;;8.80;99.90;;;;;;5115399;28;19912;-74
2022/04/30 05:14:06;;;;;;;;;;;8.90;99.90;;;;;;5132870;28;19959;-74
2022/04/30 05:16:32;;;;;;;;;;;8.90;99.90;;;;;;5133334;27;19908;-74
2022/04/30 05:18:58;;;;;;;;;;;8.90;99.90;;;;;;5136610;27;19908;-75
2022/04/30 05:21:25;;;;;;;;;;;8.90;99.90;;;;;;5137043;27;20706;-75
2022/04/30 05:23:51;;;;;;;;;;;8.90;99.90;;;;;;5137441;27;19908;-74
2022/04/30 05:26:16;;;;;;;;;;;8.90;99.90;;;;;;5136448;27;19915;-75
2022/04/30 05:28:42;;;;;;;;;;;8.90;99.90;;;;;;5136948;27;20408;-75
2022/04/30 05:31:08;;;;;;;;;;;8.90;99.90;;;;;;5136815;27;20420;-75
2022/04/30 05:33:36;;;;;;;;;;;8.90;99.90;;;;;;5137329;27;20268;-75
2022/04/30 05:36:02;;;;;;;;;;;8.90;99.90;;;;;;5136774;27;19914;-75
2022/04/30 05:38:28;;;;;;;;;;;9.00;99.90;;;;;;5136533;27;19908;-75
2022/04/30 05:40:53;;;;;;;;;;;9.00;99.90;;;;;;5137152;27;19918;-75
2022/04/30 05:43:19;;;;;;;;;;;9.10;99.90;;;;;;5136248;27;19960;-74
2022/04/30 05:45:45;;;;;;;;;;;9.10;99.90;;;;;;5136781;27;19951;-75
2022/04/30 05:48:11;;;;;;;;;;;9.10;99.90;;;;;;5136387;27;19914;-75
2022/04/30 05:50:37;;;;;;;;;;;9.10;99.90;;;;;;5137093;27;19915;-75
2022/04/30 05:53:02;;;;;;;;;;;9.20;99.90;;;;;;5136981;27;20338;-75
2022/04/30 05:55:28;;;;;;;;;;;9.20;99.90;;;;;;5136352;27;19911;-75
2022/04/30 05:57:53;;;;;;;;;;;9.20;99.90;;;;;;5136798;27;20092;-75
2022/04/30 06:00:19;;;;;;;;;;;9.30;99.90;;;;;;5135973;27;20276;-75
2022/04/30 06:02:47;;;;;;;;;;;9.30;99.90;;;;;;5136431;27;19952;-75
2022/04/30 06:05:13;;;;;;;;;;;9.30;99.90;;;;;;5136117;27;19908;-75
2022/04/30 06:07:38;;;;;;;;;;;9.30;99.90;;;;;;5136513;27;20002;-75
2022/04/30 06:10:05;;;;;;;;;;;9.40;99.90;;;;;;5136503;27;19918;-75
2022/04/30 06:12:31;;;;;;;;;;;9.40;99.90;;;;;;5135687;27;19996;-75
2022/04/30 06:14:57;;;;;;;;;;;9.50;99.90;;;;;;5136547;27;19928;-75
2022/04/30 06:17:22;;;;;;;;;;;9.60;99.90;;;;;;5135847;27;19907;-75
2022/04/30 06:19:48;;;;;;;;;;;9.70;99.90;;;;;;5136544;27;19907;-75
2022/04/30 06:22:13;;;;;;;;;;;9.70;99.90;;;;;;5135858;27;20429;-75
2022/04/30 06:24:39;;;;;;;;;;;9.70;99.90;;;;;;5136056;27;20263;-75
2022/04/30 06:27:05;;;;;;;;;;;9.80;99.90;;;;;;5136167;27;19914;-75
2022/04/30 06:29:31;;;;;;;;;;;9.90;99.90;;;;;;5135517;27;19932;-75
2022/04/30 06:31:56;;;;;;;;;;;9.90;99.90;;;;;;5136274;27;19984;-75
2022/04/30 06:34:22;;;;;;;;;;;9.90;99.90;;;;;;5135013;27;19914;-75
2022/04/30 06:36:48;;;;;;;;;;;9.90;99.90;;;;;;5135855;27;19951;-75
2022/04/30 06:39:13;;;;;;;;;;;10.00;99.90;;;;;;5135477;27;19907;-75
2022/04/30 06:41:39;;;;;;;;;;;10.10;99.90;;;;;;5135729;27;19914;-75
2022/04/30 06:44:05;;;;;;;;;;;10.20;99.90;;;;;;5135778;27;19992;-75
2022/04/30 06:46:31;;;;;;;;;;;10.40;99.90;;;;;;5135650;27;19960;-75
2022/04/30 06:48:58;;;;;;;;;;;10.50;99.90;;;;;;5135731;27;19923;-75
2022/04/30 06:51:23;;;;;;;;;;;10.60;99.90;;;;;;5135198;27;19934;-75
2022/04/30 06:59:18;;;;;;;;;;;10.80;99.90;;;;;;5134729;27;20343;-75
2022/04/30 07:01:49;;;;;;;;;;;10.90;99.90;;;;;;5135562;27;19945;-75
2022/04/30 07:04:16;;;;;;;;;;;10.90;99.90;;;;;;5134989;27;20002;-75
2022/04/30 07:06:42;;;;;;;;;;;10.90;99.90;;;;;;5135980;27;19954;-75
2022/04/30 07:09:07;;;;;;;;;;;11.00;99.90;;;;;;5135355;27;19965;-74
2022/04/30 07:11:33;;;;;;;;;;;11.00;99.90;;;;;;5135300;27;20394;-74
2022/04/30 07:13:59;;;;;;;;;;;11.00;99.90;;;;;;5135732;27;19914;-74
2022/04/30 07:16:25;;;;;;;;;;;11.00;99.90;;;;;;5134585;27;19914;-74
2022/04/30 07:18:50;;;;;;;;;;;11.00;99.90;;;;;;5135205;27;20387;-74
2022/04/30 07:21:16;;;;;;;;;;;11.10;99.90;;;;;;5134684;27;19933;-74
2022/04/30 07:23:42;;;;;;;;;;;11.10;99.90;;;;;;5135413;27;19915;-74
2022/04/30 07:26:08;;;;;;;;;;;11.10;99.90;;;;;;5135099;27;19915;-74
2022/04/30 07:28:35;;;;;;;;;;;11.20;99.90;;;;;;5134773;27;19907;-75
2022/04/30 07:31:04;;;;;;;;;;;11.20;99.90;;;;;;5116559;27;19917;-75
2022/04/30 07:33:30;;;;;;;;;;;11.20;99.90;;;;;;5133982;27;19918;-75
2022/04/30 07:35:56;;;;;;;;;;;11.20;99.90;;;;;;5134636;27;20272;-74
2022/04/30 07:38:22;;;;;;;;;;;11.30;99.90;;;;;;5133930;27;19995;-75
2022/04/30 07:40:47;;;;;;;;;;;11.30;99.90;;;;;;5133897;27;19943;-75
2022/04/30 07:43:13;;;;;;;;;;;11.30;99.90;;;;;;5134613;27;19955;-75
2022/04/30 07:45:39;;;;;;;;;;;11.30;99.90;;;;;;5134172;27;19907;-75
2022/04/30 07:48:05;;;;;;;;;;;11.40;99.90;;;;;;5134542;27;20324;-75
2022/04/30 07:50:35;;;;;;;;;;;11.40;99.90;;;;;;5133837;27;20275;-75
2022/04/30 07:53:04;;;;;;;;;;;11.30;99.90;;;;;;5134484;27;20027;-75
2022/04/30 07:55:30;;;;;;;;;;;11.30;99.90;;;;;;5133448;27;19942;-75
2022/04/30 07:57:57;;;;;;;;;;;11.40;99.90;;;;;;5133916;27;20011;-74
2022/04/30 08:00:22;;;;;;;;;;;11.40;99.90;;;;;;5133840;27;19907;-75
2022/04/30 08:02:48;;;;;;;;;;;11.30;99.90;;;;;;5134233;27;19914;-75
2022/04/30 08:05:14;;;;;;;;;;;11.30;99.90;;;;;;5134185;27;19908;-75
2022/04/30 08:07:39;;;;;;;;;;;11.30;99.90;;;;;;5133761;27;20003;-75
2022/04/30 08:10:05;;;;;;;;;;;11.30;99.90;;;;;;5133963;27;20356;-75
2022/04/30 08:12:31;;;;;;;;;;;11.40;99.90;;;;;;5133223;27;19937;-76
2022/04/30 08:14:56;;;;;;;;;;;11.40;99.90;;;;;;5134114;27;20017;-75
2022/04/30 08:17:23;;;;;;;;;;;11.40;99.90;;;;;;5133105;27;19965;-75
2022/04/30 08:19:49;;;;;;;;;;;11.50;99.90;;;;;;5134029;27;19950;-75
2022/04/30 08:22:14;;;;;;;;;;;11.50;99.90;;;;;;5133805;27;19965;-74
2022/04/30 08:24:40;;;;;;;;;;;11.50;99.90;;;;;;5133236;27;19908;-75
2022/04/30 08:27:06;;;;;;;;;;;11.50;99.90;;;;;;5133749;27;19907;-75
2022/04/30 08:29:31;;;;;;;;;;;11.50;99.90;;;;;;5114270;27;20311;-75
2022/04/30 08:31:57;;;;;;;;;;;11.60;99.90;;;;;;5133570;27;19940;-74
2022/04/30 08:34:22;;;;;;;;;;;11.50;99.90;;;;;;5133189;27;19919;-74
2022/04/30 08:36:49;;;;;;;;;;;11.50;99.90;;;;;;5134035;27;19990;-75
2022/04/30 08:39:15;;;;;;;;;;;11.60;99.90;;;;;;5133553;27;19908;-75
2022/04/30 08:41:43;;;;;;;;;;;11.60;99.90;;;;;;5132795;27;20260;-75
2022/04/30 08:44:18;;;;;;;;;;;11.70;99.90;;;;;;5133550;27;19908;-75
2022/04/30 08:46:44;;;;;;;;;;;11.70;99.90;;;;;;5133929;28;19915;-75
2022/04/30 08:49:10;;;;;;;;;;;11.70;99.90;;;;;;5133545;28;19912;-75
2022/04/30 08:51:36;;;;;;;;;;;11.70;99.90;;;;;;5133650;27;19911;-74
2022/04/30 08:54:02;;;;;;;;;;;11.70;99.90;;;;;;5137356;27;20356;-74
2022/04/30 08:56:28;;;;;;;;;;;11.80;99.90;;;;;;5137632;27;19919;-74
2022/04/30 08:58:57;;;;;;;;;;;11.70;99.90;;;;;;5137714;27;19907;-74
2022/04/30 09:01:22;;;;;;;;;;;11.70;99.90;;;;;;5137495;27;20280;-74
2022/04/30 09:03:48;;;;;;;;;;;11.80;99.90;;;;;;5138060;27;19907;-74
2022/04/30 09:06:17;;;;;;;;;;;11.80;99.90;;;;;;5138241;27;20292;-74
2022/04/30 09:08:49;;;;;;;;;;;11.90;99.90;;;;;;5137042;27;20379;-74
2022/04/30 09:11:15;;;;;;;;;;;11.90;99.90;;;;;;5137834;27;19911;-74
2022/04/30 09:13:44;;;;;;;;;;;12.00;99.90;;;;;;5137304;27;19907;-74
2022/04/30 09:16:20;;;;;;;;;;;11.90;99.90;;;;;;5137689;27;20344;-74
2022/04/30 09:18:46;;;;;;;;;;;12.00;99.90;;;;;;5138003;27;19982;-74
2022/04/30 09:21:13;;;;;;;;;;;11.90;99.90;;;;;;5137715;27;19999;-74
2022/04/30 09:23:39;;;;;;;;;;;11.80;99.90;;;;;;5137121;27;20378;-74
2022/04/30 09:26:06;;;;;;;;;;;11.90;99.90;;;;;;5137576;27;19914;-74
2022/04/30 09:28:33;;;;;;;;;;;12.00;99.90;;;;;;5136588;27;20387;-74
2022/04/30 09:31:10;;;;;;;;;;;12.10;99.90;;;;;;5137108;27;20435;-74
2022/04/30 09:33:36;;;;;;;;;;;12.10;99.90;;;;;;5136823;27;19907;-74
2022/04/30 09:38:50;;;;;;;;;;;12.30;99.90;;;;;;5137393;27;19946;-74
2022/04/30 09:41:20;;;;;;;;;;;12.40;99.90;;;;;;5137811;27;20347;-75
2022/04/30 09:43:46;;;;;;;;;;;12.40;99.90;;;;;;5136877;27;19914;-75
2022/04/30 09:46:11;;;;;;;;;;;12.40;99.90;;;;;;5137268;27;19907;-75
2022/04/30 09:54:07;;;;;;;;;;;12.50;99.90;;;;;;5136518;27;19918;-75
2022/04/30 09:56:40;;;;;;;;;;;12.70;99.90;;;;;;5136064;27;19989;-75
2022/04/30 09:59:06;;;;;;;;;;;12.80;99.90;;;;;;5136825;27;20272;-75
2022/04/30 10:01:34;;;;;;;;;;;12.90;99.90;;;;;;5136061;27;20280;-75
2022/04/30 10:04:06;;;;;;;;;;;12.80;99.90;;;;;;5136260;27;19990;-75
2022/04/30 10:06:32;;;;;;;;;;;12.80;99.90;;;;;;5136318;27;19965;-75
2022/04/30 10:08:58;;;;;;;;;;;12.70;99.90;;;;;;5136610;27;19922;-75
2022/04/30 10:11:27;;;;;;;;;;;12.80;99.90;;;;;;5136545;27;19911;-75
2022/04/30 10:14:09;;;;;;;;;;;12.80;99.90;;;;;;5136705;27;19908;-75
2022/04/30 10:16:34;;;;;;;;;;;12.80;99.90;;;;;;5136155;27;19919;-75
2022/04/30 10:19:12;;;;;;;;;;;12.90;99.90;;;;;;5136543;27;19999;-75
2022/04/30 10:21:41;;;;;;;;;;;12.90;99.90;;;;;;5136128;27;19908;-75
2022/04/30 10:24:07;;;;;;;;;;;13.00;99.90;;;;;;5136543;27;19907;-75
2022/04/30 10:26:33;;;;;;;;;;;13.10;99.90;;;;;;5135882;27;20409;-75
2022/04/30 10:29:10;;;;;;;;;;;13.20;99.90;;;;;;5136020;27;19912;-74
2022/04/30 10:31:43;;;;;;;;;;;13.20;99.90;;;;;;5136066;27;19911;-75
2022/04/30 10:34:09;;;;;;;;;;;13.20;99.90;;;;;;5136047;27;19908;-75
2022/04/30 10:36:36;;;;;;;;;;;13.40;99.90;;;;;;5135759;27;19914;-75
2022/04/30 10:39:09;;;;;;;;;;;13.50;99.90;;;;;;5136248;27;19941;-75
2022/04/30 10:41:52;;;;;;;;;;;13.40;99.90;;;;;;5135606;27;19969;-75
2022/04/30 10:44:26;;;;;;;;;;;13.40;99.90;;;;;;5135582;27;19918;-74
2022/04/30 10:46:52;;;;;;;;;;;13.40;99.90;;;;;;5136318;27;19966;-75
2022/04/30 10:49:18;;;;;;;;;;;13.50;99.90;;;;;;5136022;27;19915;-74
2022/04/30 10:51:45;;;;;;;;;;;13.50;99.90;;;;;;5135056;27;20006;-74
2022/04/30 10:54:18;;;;;;;;;;;13.70;99.90;;;;;;5136093;27;19907;-75
2022/04/30 10:56:44;;;;;;;;;;;13.70;99.90;;;;;;5135367;27;19926;-75
2022/04/30 10:59:10;;;;;;;;;;;13.90;99.90;;;;;;5135783;27;19907;-74
2022/04/30 11:01:36;;;;;;;;;;;13.90;99.90;;;;;;5134956;27;19983;-75
2022/04/30 11:04:02;;;;;;;;;;;14.10;99.90;;;;;;5135865;27;19915;-75
2022/04/30 11:06:29;;;;;;;;;;;14.10;99.90;;;;;;5135216;27;20335;-73
2022/04/30 11:08:56;;;;;;;;;;;14.10;99.90;;;;;;5135658;27;20276;-74
2022/04/30 11:11:21;;;;;;;;;;;14.20;99.90;;;;;;5135707;27;19926;-74
2022/04/30 11:13:54;;;;;;;;;;;14.30;99.90;;;;;;5135104;27;19912;-74
2022/04/30 11:16:19;;;;;;;;;;;14.20;99.90;;;;;;5134938;27;20335;-74
2022/04/30 11:18:45;;;;;;;;;;;14.30;99.90;;;;;;5135412;27;19954;-74
2022/04/30 11:21:10;;;;;;;;;;;14.30;99.90;;;;;;5135447;27;19914;-74
2022/04/30 11:23:36;;;;;;;;;;;14.20;99.90;;;;;;5134545;27;20002;-74
2022/04/30 11:26:01;;;;;;;;;;;14.10;99.90;;;;;;5135066;27;19907;-74
2022/04/30 11:28:28;;;;;;;;;;;14.10;99.90;;;;;;5134936;27;19912;-74
2022/04/30 11:30:57;;;;;;;;;;;14.00;99.90;;;;;;5133778;27;19992;-74
2022/04/30 11:33:31;;;;;;;;;;;13.90;99.90;;;;;;5135172;27;19914;-74
2022/04/30 11:35:56;;;;;;;;;;;13.80;99.90;;;;;;5134886;27;20235;-74
2022/04/30 11:38:22;;;;;;;;;;;13.80;99.90;;;;;;5134734;27;19915;-74
2022/04/30 11:40:47;;;;;;;;;;;13.90;99.90;;;;;;5134225;27;20241;-74
2022/04/30 11:43:13;;;;;;;;;;;13.80;99.90;;;;;;5134969;27;19908;-74
2022/04/30 11:45:38;;;;;;;;;;;13.70;99.90;;;;;;5133731;27;19907;-74
2022/04/30 11:48:04;;;;;;;;;;;13.70;99.90;;;;;;5134367;27;19952;-74
2022/04/30 11:50:30;;;;;;;;;;;13.70;99.90;;;;;;5134319;27;19911;-74
2022/04/30 11:52:56;;;;;;;;;;;13.60;99.90;;;;;;5134011;27;19919;-74
2022/04/30 11:55:22;;;;;;;;;;;13.70;99.90;;;;;;5134629;27;20264;-74
2022/04/30 11:57:48;;;;;;;;;;;13.60;99.90;;;;;;5133644;27;19959;-75
2022/04/30 12:00:15;;;;;;;;;;;13.50;99.90;;;;;;5134017;27;20314;-74
2022/04/30 12:02:41;;;;;;;;;;;13.50;99.90;;;;;;5133346;27;20363;-75
2022/04/30 12:05:07;;;;;;;;;;;13.40;99.90;;;;;;5134304;27;20010;-75
2022/04/30 12:07:37;;;;;;;;;;;13.40;99.90;;;;;;5134110;27;20347;-75
2022/04/30 12:10:13;;;;;;;;;;;13.50;99.90;;;;;;5134389;27;19918;-75
2022/04/30 12:12:39;;;;;;;;;;;13.50;99.90;;;;;;5133988;27;19912;-75
2022/04/30 12:15:15;;;;;;;;;;;13.50;99.90;;;;;;5134223;27;20412;-75
2022/04/30 12:17:41;;;;;;;;;;;13.50;99.90;;;;;;5133367;27;19933;-75
2022/04/30 12:25:45;;;;;;;;;;;13.50;99.90;;;;;;5133479;27;19933;-75
2022/04/30 12:28:12;;;;;;;;;;;13.50;99.90;;;;;;5133423;27;19908;-75
2022/04/30 12:30:48;;;;;;;;;;;13.50;99.90;;;;;;5133046;27;20391;-75
2022/04/30 12:33:13;;;;;;;;;;;13.50;99.90;;;;;;5133756;27;20408;-75
2022/04/30 12:35:40;;;;;;;;;;;13.60;99.90;;;;;;5114950;28;19951;-75
2022/04/30 12:38:07;;;;;;;;;;;13.70;99.90;;;;;;5133998;27;19943;-74
2022/04/30 12:40:33;;;;;;;;;;;13.70;99.90;;;;;;5133611;27;20260;-75
2022/04/30 12:42:59;;;;;;;;;;;13.50;99.90;;;;;;5132908;27;19914;-74
2022/04/30 12:45:25;;;;;;;;;;;13.50;99.90;;;;;;5131502;27;19907;-76
2022/04/30 12:47:51;;;;;;;;;;;13.40;99.90;;;;;;5133292;28;19908;-77
2022/04/30 12:50:17;;;;;;;;;;;13.40;99.90;;;;;;5133770;28;20005;-75
2022/04/30 12:52:43;;;;;;;;;;;13.30;99.90;;;;;;5132529;28;19911;-76
2022/04/30 12:55:10;;;;;;;;;;;13.40;99.90;;;;;;5133316;28;20328;-76
2022/04/30 12:57:36;;;;;;;;;;;13.40;99.90;;;;;;5132603;27;19927;-76
2022/04/30 13:00:03;;;;;;;;;;;13.30;99.90;;;;;;5123338;27;20364;-76
2022/04/30 13:02:30;;;;;;;;;;;13.30;99.90;;;;;;5135405;27;20006;-75
2022/04/30 13:04:56;;;;;;;;;;;13.30;99.90;;;;;;5114255;28;19915;-76
2022/04/30 13:07:21;;;;;;;;;;;13.40;99.90;;;;;;5136194;27;19911;-76
2022/04/30 13:15:15;;;;;;;;;;;14.00;99.90;;;;;;5153585;27;19960;-76
2022/04/30 13:17:41;;;;;;;;;;;14.30;99.90;;;;;;5126407;27;19911;-76
2022/04/30 13:20:07;;;;;;;;;;;14.40;99.90;;;;;;5153593;27;19915;-76
2022/04/30 13:22:32;;;;;;;;;;;14.60;99.90;;;;;;5153773;27;19906;-76
2022/04/30 13:24:58;;;;;;;;;;;14.80;99.90;;;;;;5152690;27;20528;-76
2022/04/30 13:27:24;;;;;;;;;;;14.80;99.90;;;;;;5153137;27;19908;-76
2022/04/30 13:29:49;;;;;;;;;;;14.80;99.90;;;;;;5152614;27;19911;-76
2022/04/30 13:32:15;;;;;;;;;;;14.80;99.90;;;;;;5153390;27;20325;-76
2022/04/30 13:34:41;;;;;;;;;;;14.80;99.90;;;;;;5152305;27;19907;-76
2022/04/30 13:37:07;;;;;;;;;;;14.80;99.90;;;;;;5153005;27;20128;-76
2022/04/30 13:39:32;;;;;;;;;;;14.70;99.90;;;;;;5155412;27;19959;-76
2022/04/30 13:41:58;;;;;;;;;;;14.60;99.90;;;;;;5156568;27;19913;-76
2022/04/30 13:44:24;;;;;;;;;;;14.40;99.90;;;;;;5156914;27;19928;-76
2022/04/30 13:46:50;;;;;;;;;;;14.30;99.90;;;;;;5156706;27;20399;-76
2022/04/30 13:49:16;;;;;;;;;;;14.30;99.90;;;;;;5156668;27;19917;-76
2022/04/30 13:51:41;;;;;;;;;;;14.30;99.90;;;;;;5156685;27;19911;-76
2022/04/30 13:54:07;;;;;;;;;;;14.30;99.90;;;;;;5156799;27;20386;-76
2022/04/30 13:56:36;;;;;;;;;;;14.30;99.90;;;;;;5156821;27;19926;-76
2022/04/30 13:59:05;;;;;;;;;;;14.30;99.90;;;;;;5156368;27;19930;-75
2022/04/30 14:01:31;;;;;;;;;;;14.20;99.90;;;;;;5156865;27;19952;-76
2022/04/30 14:03:56;;;;;;;;;;;14.20;99.90;;;;;;5156091;27;19907;-75
2022/04/30 14:06:22;;;;;;;;;;;14.20;99.90;;;;;;5156589;27;19914;-76
2022/04/30 14:08:47;;;;;;;;;;;14.20;99.90;;;;;;5155948;27;19975;-76
2022/04/30 14:11:13;;;;;;;;;;;14.20;99.90;;;;;;5156643;27;19918;-76
2022/04/30 14:16:23;;;;;;;;;;;14.20;99.90;;;;;;5156419;27;19934;-75
2022/04/30 14:18:49;;;;;;;;;;;14.20;99.90;;;;;;5155381;27;20295;-76
2022/04/30 14:21:15;;;;;;;;;;;14.10;99.90;;;;;;5137862;27;19908;-76
2022/04/30 14:23:41;;;;;;;;;;;14.10;99.90;;;;;;5156513;27;20305;-77
2022/04/30 14:26:07;;;;;;;;;;;14.20;99.90;;;;;;5156253;27;19907;-76
2022/04/30 14:28:32;;;;;;;;;;;14.20;99.90;;;;;;5156332;27;19991;-76
2022/04/30 14:31:01;;;;;;;;;;;14.20;99.90;;;;;;5155800;27;19959;-76
2022/04/30 14:33:27;;;;;;;;;;;14.10;99.90;;;;;;5144852;27;20162;-76
2022/04/30 14:35:53;;;;;;;;;;;14.10;99.90;;;;;;5142323;27;21319;-76
2022/04/30 14:38:18;;;;;;;;;;;14.10;99.90;;;;;;5143341;27;20322;-76
2022/04/30 14:40:44;;;;;;;;;;;14.00;99.90;;;;;;5150138;27;19914;-76
2022/04/30 14:43:10;;;;;;;;;;;13.90;99.90;;;;;;5138564;27;19999;-77
2022/04/30 14:45:38;;;;;;;;;;;13.80;99.90;;;;;;5151054;27;20359;-74
2022/04/30 14:48:04;;;;;;;;;;;13.80;99.90;;;;;;5124807;27;19952;-74
2022/04/30 14:50:30;;;;;;;;;;;13.70;99.90;;;;;;5141865;27;20381;-76
2022/04/30 14:52:55;;;;;;;;;;;13.60;99.90;;;;;;5142835;27;19976;-75
2022/04/30 14:55:21;;;;;;;;;;;13.60;99.90;;;;;;5131434;27;20371;-76
2022/04/30 14:57:46;;;;;;;;;;;13.70;99.90;;;;;;5139216;27;20153;-76
2022/04/30 15:00:12;;;;;;;;;;;13.70;99.90;;;;;;5151781;27;19907;-76
2022/04/30 15:02:38;;;;;;;;;;;13.70;99.90;;;;;;5137759;27;19926;-76
2022/04/30 15:05:03;;;;;;;;;;;13.70;99.90;;;;;;5141194;27;19918;-76
2022/04/30 15:07:29;;;;;;;;;;;13.60;99.90;;;;;;5145884;27;20002;-77